Time;durP1;ratioP1;P1;durP2;ratioP2;P2;SDS_P1;SDS_P2;PMS_P1;PMS_P2;Temp;Humidity;BMP_temperature;BMP_pressure;BME280_temperature;BME280_humidity;BME280_pressure;Samples;Min_cycle;Max_cycle;Signal;HPM_P1;HPM_P2
2021/11/24 00:01:48;;;;;;;58.67;32.92;;;102.40;2227.20;;;;;;5072981;28;20016;-76
2021/11/24 00:04:14;;;;;;;51.95;32.45;;;102.40;2227.20;;;;;;5073130;28;20032;-76
2021/11/24 00:06:39;;;;;;;55.58;32.33;;;102.50;2227.20;;;;;;5091085;28;20021;-76
2021/11/24 00:09:05;;;;;;;52.42;29.23;;;102.50;2227.20;;;;;;5072085;28;20025;-75
2021/11/24 00:11:31;;;;;;;46.15;28.20;;;102.60;2227.20;;;;;;5066454;28;20028;-75
2021/11/24 00:13:57;;;;;;;45.38;25.33;;;102.60;2227.20;;;;;;5082425;28;20032;-75
2021/11/24 00:16:24;;;;;;;49.78;28.20;;;102.60;2227.20;;;;;;5084084;28;20030;-76
2021/11/24 00:18:50;;;;;;;43.75;25.48;;;102.60;2227.20;;;;;;5072482;28;20050;-76
2021/11/24 00:21:16;;;;;;;44.17;25.90;;;102.50;2227.20;;;;;;5064979;28;20517;-76
2021/11/24 00:23:41;;;;;;;37.80;25.38;;;102.50;2227.20;;;;;;5082529;28;20795;-76
2021/11/24 00:26:07;;;;;;;39.78;24.02;;;102.50;2227.20;;;;;;5067641;28;20032;-76
2021/11/24 00:28:33;;;;;;;39.38;24.38;;;102.50;2227.20;;;;;;5085510;28;20021;-75
2021/11/24 00:30:59;;;;;;;35.55;23.80;;;102.50;2227.20;;;;;;5080647;28;20505;-76
2021/11/24 00:33:26;;;;;;;44.20;27.55;;;102.40;2227.20;;;;;;5067465;28;20063;-75
2021/11/24 00:35:52;;;;;;;45.20;25.80;;;102.40;2227.20;;;;;;5083197;28;20021;-75
2021/11/24 00:38:18;;;;;;;48.97;28.35;;;102.40;2227.20;;;;;;5061345;28;20055;-75
2021/11/24 00:40:44;;;;;;;49.88;30.17;;;77.60;2227.20;;;;;;5080003;28;20028;-76
2021/11/24 00:43:10;;;;;;;45.33;29.33;;;77.50;2227.20;;;;;;5084312;28;20028;-75
2021/11/24 00:45:36;;;;;;;51.63;28.45;;;77.50;2227.20;;;;;;5090939;28;20103;-75
2021/11/24 00:48:03;;;;;;;53.97;32.00;;;77.50;2227.20;;;;;;5072636;28;20032;-75
2021/11/24 00:50:29;;;;;;;52.95;31.00;;;77.40;2227.20;;;;;;5073012;28;20390;-75
2021/11/24 00:52:55;;;;;;;54.42;31.80;;;77.30;2227.20;;;;;;5093506;28;20040;-76
2021/11/24 00:55:21;;;;;;;52.70;30.38;;;77.10;2227.20;;;;;;5076563;28;20555;-76
2021/11/24 00:57:47;;;;;;;64.20;34.30;;;77.10;2227.20;;;;;;5077053;28;20488;-76
2021/11/24 01:00:15;;;;;;;52.08;29.50;;;77.00;2227.20;;;;;;5094898;28;20108;-76
2021/11/24 01:02:42;;;;;;;58.40;33.15;;;77.00;2227.20;;;;;;5076996;28;20027;-76
2021/11/24 01:05:08;;;;;;;50.47;32.38;;;77.00;2227.20;;;;;;5076817;28;20128;-76
2021/11/24 01:07:34;;;;;;;56.03;30.55;;;76.90;2227.20;;;;;;5076704;28;20035;-76
2021/11/24 01:10:00;;;;;;;48.97;30.38;;;76.90;2227.20;;;;;;5076637;28;20020;-75
2021/11/24 01:12:26;;;;;;;53.80;31.95;;;77.00;2227.20;;;;;;5091473;28;20118;-76
2021/11/24 01:14:53;;;;;;;49.40;30.55;;;77.00;2227.20;;;;;;5073132;28;20058;-76
2021/11/24 01:17:19;;;;;;;59.63;33.45;;;76.90;2227.20;;;;;;5091562;28;20024;-76
2021/11/24 01:19:45;;;;;;;58.08;34.03;;;76.80;2227.20;;;;;;5079077;28;20033;-76
2021/11/24 01:22:11;;;;;;;66.65;36.88;;;76.80;2227.20;;;;;;5095462;28;20114;-76
2021/11/24 01:24:36;;;;;;;67.28;39.30;;;52.10;2227.20;;;;;;5114550;28;20019;-76
2021/11/24 01:27:02;;;;;;;56.60;34.50;;;76.80;2227.20;;;;;;5112738;28;20782;-76
2021/11/24 01:29:28;;;;;;;65.28;36.10;;;76.80;2227.20;;;;;;5096255;28;20379;-76
2021/11/24 01:31:54;;;;;;;75.55;42.58;;;51.90;2227.20;;;;;;5095837;28;20031;-76
2021/11/24 01:34:19;;;;;;;78.13;41.67;;;51.90;2227.20;;;;;;5082096;28;20028;-75
2021/11/24 01:36:45;;;;;;;74.63;41.40;;;51.90;2227.20;;;;;;5094239;28;20024;-75
2021/11/24 01:39:11;;;;;;;70.53;39.80;;;51.70;2227.20;;;;;;5093976;28;20031;-75
2021/11/24 01:41:37;;;;;;;74.20;41.65;;;51.60;2227.20;;;;;;5093612;28;20081;-75
2021/11/24 01:44:03;;;;;;;72.55;39.88;;;51.70;2227.20;;;;;;5075855;28;20369;-76
2021/11/24 01:46:29;;;;;;;63.40;37.53;;;51.70;2227.20;;;;;;5094334;28;20036;-75
2021/11/24 01:48:55;;;;;;;68.35;39.25;;;51.70;2227.20;;;;;;5075713;28;20032;-75
2021/11/24 01:51:22;;;;;;;73.93;38.47;;;51.80;2227.20;;;;;;5094113;28;20020;-75
2021/11/24 01:53:49;;;;;;;66.60;37.30;;;51.90;2227.20;;;;;;5075480;28;20096;-75
2021/11/24 01:56:15;;;;;;;59.45;34.83;;;52.00;2227.20;;;;;;5075908;28;20471;-75
2021/11/24 01:58:41;;;;;;;58.63;32.40;;;52.10;2227.20;;;;;;5075660;28;20024;-75
2021/11/24 02:01:06;;;;;;;71.50;36.53;;;52.10;2227.20;;;;;;5075011;28;20050;-75
2021/11/24 02:03:32;;;;;;;62.38;34.13;;;76.80;2227.20;;;;;;5074576;28;20042;-75
2021/11/24 02:05:58;;;;;;;59.38;33.67;;;76.80;2227.20;;;;;;5092843;28;20032;-75
2021/11/24 02:08:24;;;;;;;58.08;35.15;;;76.80;2227.20;;;;;;5092806;28;20032;-75
2021/11/24 02:10:50;;;;;;;62.95;36.22;;;76.80;2227.20;;;;;;5074532;28;20035;-75
2021/11/24 02:13:16;;;;;;;63.00;36.00;;;76.90;2227.20;;;;;;5089011;28;20132;-75
2021/11/24 02:15:42;;;;;;;67.47;36.63;;;77.00;2227.20;;;;;;5072920;28;20783;-75
2021/11/24 02:18:08;;;;;;;65.15;36.03;;;76.90;2227.20;;;;;;5073502;28;20119;-75
2021/11/24 02:20:33;;;;;;;57.78;34.05;;;76.90;2227.20;;;;;;5073231;28;20131;-75
2021/11/24 02:22:59;;;;;;;67.32;37.72;;;76.80;2227.20;;;;;;5089003;28;20115;-75
2021/11/24 02:25:25;;;;;;;67.05;37.70;;;52.00;2227.20;;;;;;5054390;28;20090;-75
2021/11/24 02:27:51;;;;;;;63.13;36.30;;;51.90;2227.20;;;;;;5055333;28;20495;-75
2021/11/24 02:30:18;;;;;;;70.10;38.28;;;51.90;2227.20;;;;;;5055056;28;20082;-75
2021/11/24 02:32:43;;;;;;;67.28;36.40;;;51.80;2227.20;;;;;;5073153;28;20024;-75
2021/11/24 02:35:09;;;;;;;72.45;37.17;;;51.70;2227.20;;;;;;5072807;28;20035;-76
2021/11/24 02:37:35;;;;;;;73.10;35.95;;;51.70;2227.20;;;;;;5072448;28;20025;-75
2021/11/24 02:40:01;;;;;;;65.38;37.03;;;51.70;2227.20;;;;;;5055302;28;20024;-75
2021/11/24 02:42:27;;;;;;;67.60;38.30;;;51.70;2227.20;;;;;;5072242;28;20032;-75
2021/11/24 02:44:54;;;;;;;58.80;37.42;;;51.60;2227.20;;;;;;5072736;28;20036;-75
2021/11/24 02:47:21;;;;;;;59.97;35.88;;;51.60;2227.20;;;;;;5072418;28;20027;-75
2021/11/24 02:49:50;;;;;;;73.22;39.45;;;51.50;2227.20;;;;;;5072496;28;20024;-75
2021/11/24 02:52:18;;;;;;;62.10;35.38;;;51.50;2227.20;;;;;;5088004;28;20028;-76
2021/11/24 02:54:58;;;;;;;66.20;38.65;;;51.50;2227.20;;;;;;5072494;28;20031;-75
2021/11/24 02:57:35;;;;;;;63.50;36.33;;;51.40;2227.20;;;;;;5072789;28;20033;-75
2021/11/24 03:00:05;;;;;;;66.35;36.47;;;51.40;2227.20;;;;;;5088014;28;20025;-75
2021/11/24 03:02:31;;;;;;;56.90;34.88;;;51.40;2227.20;;;;;;5083892;28;20036;-75
2021/11/24 03:04:57;;;;;;;57.45;36.35;;;51.50;2227.20;;;;;;5071854;28;20032;-75
2021/11/24 03:07:23;;;;;;;52.95;32.33;;;51.60;2227.20;;;;;;5071724;28;20100;-75
2021/11/24 03:09:52;;;;;;;57.90;33.50;;;51.70;2227.20;;;;;;5070973;28;20024;-75
2021/11/24 03:12:19;;;;;;;58.63;33.63;;;51.80;2227.20;;;;;;5079945;28;20028;-76
2021/11/24 03:14:45;;;;;;;57.65;32.10;;;51.90;2227.20;;;;;;5092209;28;20111;-75
2021/11/24 03:17:10;;;;;;;55.72;32.92;;;51.90;2227.20;;;;;;5092000;28;20099;-75
2021/11/24 03:19:36;;;;;;;61.83;32.22;;;51.90;2227.20;;;;;;5074706;28;20065;-75
2021/11/24 03:22:02;;;;;;;51.42;31.10;;;51.90;2227.20;;;;;;5074110;28;20065;-75
2021/11/24 03:24:28;;;;;;;58.78;32.05;;;51.90;2227.20;;;;;;5074380;28;20024;-75
2021/11/24 03:26:53;;;;;;;61.03;34.75;;;51.80;2227.20;;;;;;5091151;28;20493;-76
2021/11/24 03:29:19;;;;;;;64.95;31.73;;;51.90;2227.20;;;;;;5092581;28;20494;-76
2021/11/24 03:31:45;;;;;;;52.95;32.45;;;51.90;2227.20;;;;;;5091800;28;20547;-75
2021/11/24 03:34:11;;;;;;;47.65;29.75;;;51.80;2227.20;;;;;;5092713;28;20024;-76
2021/11/24 03:36:37;;;;;;;56.15;31.63;;;51.90;2227.20;;;;;;5073464;28;20024;-76
2021/11/24 03:39:05;;;;;;;57.33;32.95;;;51.70;2227.20;;;;;;5091710;28;20020;-75
2021/11/24 03:41:31;;;;;;;61.88;34.67;;;51.50;2227.20;;;;;;5093431;28;20034;-76
2021/11/24 03:43:56;;;;;;;55.35;31.35;;;51.50;2227.20;;;;;;5082654;28;20020;-75
2021/11/24 03:46:22;;;;;;;52.88;32.20;;;51.50;2227.20;;;;;;5093396;28;20031;-76
2021/11/24 03:48:48;;;;;;;55.35;30.55;;;51.50;2227.20;;;;;;5111623;28;20030;-75
2021/11/24 03:51:15;;;;;;;55.03;31.88;;;51.40;2227.20;;;;;;5093894;28;20059;-75
2021/11/24 03:53:41;;;;;;;54.45;33.50;;;51.30;2227.20;;;;;;5093160;28;20110;-75
2021/11/24 03:56:12;;;;;;;53.72;30.85;;;51.30;2227.20;;;;;;5112090;28;20094;-75
2021/11/24 03:58:38;;;;;;;54.25;30.98;;;51.20;2227.20;;;;;;5093170;28;20027;-75
2021/11/24 04:01:05;;;;;;;54.65;32.13;;;51.20;2227.20;;;;;;5086435;28;20025;-76
2021/11/24 04:03:31;;;;;;;51.15;29.85;;;51.30;2227.20;;;;;;5073284;28;20495;-75
2021/11/24 04:05:57;;;;;;;48.00;29.02;;;51.30;2227.20;;;;;;5091776;28;20796;-76
2021/11/24 04:08:23;;;;;;;49.15;29.20;;;51.40;2227.20;;;;;;5092078;28;20024;-75
2021/11/24 04:10:48;;;;;;;46.65;27.63;;;51.30;2227.20;;;;;;5091609;28;20032;-75
2021/11/24 04:13:15;;;;;;;48.65;28.02;;;51.20;2227.20;;;;;;5091391;28;20048;-75
2021/11/24 04:15:41;;;;;;;53.67;29.95;;;26.50;2201.60;;;;;;5091763;28;20016;-75
2021/11/24 04:18:07;;;;;;;50.78;26.55;;;26.50;2201.60;;;;;;5073494;28;20068;-75
2021/11/24 04:20:33;;;;;;;49.55;28.75;;;51.20;2227.20;;;;;;5091629;28;20510;-75
2021/11/24 04:22:58;;;;;;;57.50;33.30;;;51.30;2227.20;;;;;;5073990;28;20036;-75
2021/11/24 04:25:24;;;;;;;66.53;37.00;;;51.40;2227.20;;;;;;5073528;28;20070;-75
2021/11/24 04:27:50;;;;;;;63.80;34.83;;;51.40;2227.20;;;;;;5074946;28;20474;-75
2021/11/24 04:30:17;;;;;;;61.20;35.10;;;51.30;2227.20;;;;;;5095677;28;20032;-75
2021/11/24 04:32:43;;;;;;;71.50;35.90;;;51.40;2227.20;;;;;;5076957;28;20032;-76
2021/11/24 04:35:10;;;;;;;64.68;36.42;;;51.30;2227.20;;;;;;5095046;28;20035;-76
2021/11/24 04:37:36;;;;;;;59.30;33.17;;;51.30;2227.20;;;;;;5076159;28;20047;-76
2021/11/24 04:40:04;;;;;;;61.00;34.85;;;51.30;2227.20;;;;;;5076751;28;20115;-76
2021/11/24 04:42:30;;;;;;;56.60;32.47;;;51.30;2227.20;;;;;;5076143;28;20035;-76
2021/11/24 04:44:56;;;;;;;56.92;30.65;;;51.40;2227.20;;;;;;5076615;28;20032;-76
2021/11/24 04:47:22;;;;;;;48.00;29.00;;;51.40;2227.20;;;;;;5075465;28;20445;-75
2021/11/24 04:49:48;;;;;;;55.47;32.25;;;51.40;2227.20;;;;;;5076377;28;20114;-76
2021/11/24 04:52:14;;;;;;;53.20;29.85;;;51.30;2227.20;;;;;;5094168;28;20505;-76
2021/11/24 04:54:39;;;;;;;60.08;29.55;;;51.50;2227.20;;;;;;5094146;28;20024;-76
2021/11/24 04:57:05;;;;;;;59.97;30.27;;;51.50;2227.20;;;;;;5094075;28;20498;-76
2021/11/24 04:59:31;;;;;;;55.65;30.52;;;51.50;2227.20;;;;;;5093907;28;20028;-76
2021/11/24 05:01:57;;;;;;;49.38;29.88;;;51.60;2227.20;;;;;;5076235;28;20531;-76
2021/11/24 05:04:25;;;;;;;58.67;31.73;;;51.60;2227.20;;;;;;5075892;28;20031;-76
2021/11/24 05:06:51;;;;;;;57.75;30.10;;;51.60;2227.20;;;;;;5076943;28;20048;-76
2021/11/24 05:09:16;;;;;;;63.33;32.38;;;51.50;2227.20;;;;;;5094270;28;20058;-76
2021/11/24 05:11:42;;;;;;;59.85;33.63;;;51.30;2227.20;;;;;;5079092;28;20570;-76
2021/11/24 05:14:13;;;;;;;58.95;30.45;;;51.20;2227.20;;;;;;5098961;28;20032;-76
2021/11/24 05:16:43;;;;;;;50.75;28.95;;;51.30;2227.20;;;;;;5084705;28;20020;-75
2021/11/24 05:19:12;;;;;;;55.55;30.52;;;51.30;2227.20;;;;;;5094820;28;20133;-76
2021/11/24 05:21:39;;;;;;;55.08;31.33;;;51.40;2227.20;;;;;;5076437;28;20088;-76
2021/11/24 05:24:05;;;;;;;50.67;28.75;;;51.40;2227.20;;;;;;5094572;28;20085;-75
2021/11/24 05:26:32;;;;;;;55.38;30.05;;;51.40;2227.20;;;;;;5091594;28;20020;-75
2021/11/24 05:28:58;;;;;;;63.35;36.97;;;51.40;2227.20;;;;;;5094123;28;20092;-75
2021/11/24 05:31:25;;;;;;;65.97;38.38;;;51.40;2227.20;;;;;;5093781;28;20030;-76
2021/11/24 05:33:51;;;;;;;78.25;43.83;;;51.40;2227.20;;;;;;5076046;28;20028;-76
2021/11/24 05:36:18;;;;;;;72.07;38.88;;;51.40;2227.20;;;;;;5075630;28;20173;-76
2021/11/24 05:38:46;;;;;;;71.78;41.53;;;51.40;2227.20;;;;;;5075309;28;20022;-76
2021/11/24 05:41:12;;;;;;;84.32;45.47;;;51.40;2227.20;;;;;;5090283;28;20024;-76
2021/11/24 05:43:38;;;;;;;85.03;46.88;;;51.40;2227.20;;;;;;5075523;28;20115;-76
2021/11/24 05:46:27;;;;;;;100.95;54.38;;;51.40;2227.20;;;;;;5093825;28;20115;-76
2021/11/24 05:48:55;;;;;;;105.43;53.13;;;51.40;2227.20;;;;;;5091330;28;20478;-76
2021/11/24 05:51:21;;;;;;;112.22;59.10;;;51.40;2227.20;;;;;;5093649;28;20032;-76
2021/11/24 05:53:46;;;;;;;108.90;58.42;;;51.30;2227.20;;;;;;5075434;28;20027;-75
2021/11/24 05:56:12;;;;;;;104.85;58.95;;;51.40;2227.20;;;;;;5093675;28;20016;-76
2021/11/24 05:58:38;;;;;;;116.82;59.45;;;51.40;2227.20;;;;;;5075167;28;20750;-75
2021/11/24 06:01:04;;;;;;;116.35;62.42;;;51.40;2227.20;;;;;;5075064;28;20050;-75
2021/11/24 06:03:30;;;;;;;104.80;60.65;;;51.40;2227.20;;;;;;5075372;28;20040;-77
2021/11/24 06:05:56;;;;;;;100.85;57.08;;;51.40;2227.20;;;;;;5093204;28;20543;-76
2021/11/24 06:08:22;;;;;;;97.47;54.38;;;51.40;2227.20;;;;;;5075871;28;20086;-76
2021/11/24 06:10:48;;;;;;;92.18;50.90;;;51.40;2227.20;;;;;;5093355;28;20031;-76
2021/11/24 06:13:14;;;;;;;87.43;50.50;;;51.50;2227.20;;;;;;5075462;28;20074;-76
2021/11/24 06:15:40;;;;;;;138.15;74.20;;;51.50;2227.20;;;;;;5075402;28;20024;-76
2021/11/24 06:18:06;;;;;;;182.43;89.65;;;51.50;2227.20;;;;;;5074645;28;20036;-76
2021/11/24 06:20:32;;;;;;;151.40;75.60;;;51.50;2227.20;;;;;;5074800;28;20059;-76
2021/11/24 06:22:58;;;;;;;126.40;68.78;;;51.40;2227.20;;;;;;5074651;28;20039;-76
2021/11/24 06:25:24;;;;;;;122.93;65.30;;;51.40;2227.20;;;;;;5093092;28;20032;-76
2021/11/24 06:27:50;;;;;;;138.23;73.65;;;51.40;2227.20;;;;;;5074387;28;20061;-75
2021/11/24 06:30:18;;;;;;;143.05;71.95;;;51.40;2227.20;;;;;;5074596;28;20036;-76
2021/11/24 06:32:44;;;;;;;125.25;67.07;;;51.50;2227.20;;;;;;5092576;28;20024;-76
2021/11/24 06:35:11;;;;;;;123.03;68.72;;;51.60;2227.20;;;;;;5075062;28;20020;-76
2021/11/24 06:37:37;;;;;;;133.10;72.22;;;51.60;2227.20;;;;;;5074392;28;20031;-76
2021/11/24 06:40:05;;;;;;;139.35;76.05;;;51.70;2227.20;;;;;;5090177;28;20020;-76
2021/11/24 06:42:30;;;;;;;150.70;82.20;;;51.70;2227.20;;;;;;5088166;28;20042;-77
2021/11/24 06:44:56;;;;;;;167.05;98.20;;;51.80;2227.20;;;;;;5066794;28;20032;-76
2021/11/24 06:47:22;;;;;;;180.63;102.40;;;51.90;2227.20;;;;;;5092694;28;20024;-76
2021/11/24 06:49:47;;;;;;;182.93;95.85;;;51.90;2227.20;;;;;;5080306;28;20028;-77
2021/11/24 06:52:13;;;;;;;152.85;89.03;;;51.90;2227.20;;;;;;5074498;28;20035;-75
2021/11/24 06:54:39;;;;;;;153.27;87.55;;;52.00;2227.20;;;;;;5092372;28;20017;-76
2021/11/24 06:57:05;;;;;;;156.23;85.70;;;52.00;2227.20;;;;;;5092777;28;20051;-76
2021/11/24 06:59:31;;;;;;;135.35;78.60;;;52.10;2227.20;;;;;;5091896;28;20429;-75
2021/11/24 07:01:57;;;;;;;132.63;75.47;;;52.10;2227.20;;;;;;5091972;28;20028;-76
2021/11/24 07:04:22;;;;;;;145.23;88.97;;;76.80;2227.20;;;;;;5092009;28;20035;-74
2021/11/24 07:06:48;;;;;;;160.48;89.82;;;76.80;2227.20;;;;;;5092125;28;20077;-75
2021/11/24 07:09:14;;;;;;;158.65;92.60;;;76.90;2227.20;;;;;;5072702;28;20478;-75
2021/11/24 07:11:41;;;;;;;170.75;94.47;;;76.90;2227.20;;;;;;5091391;28;20055;-75
2021/11/24 07:14:08;;;;;;;163.52;92.70;;;77.00;2227.20;;;;;;5091858;28;20486;-75
2021/11/24 07:16:35;;;;;;;196.32;105.03;;;77.00;2227.20;;;;;;5091611;28;20482;-74
2021/11/24 07:19:01;;;;;;;218.07;115.72;;;77.10;2227.20;;;;;;5073322;28;20028;-75
2021/11/24 07:21:26;;;;;;;217.95;111.28;;;77.10;2227.20;;;;;;5073009;28;20024;-74
2021/11/24 07:23:54;;;;;;;157.52;89.40;;;77.20;2227.20;;;;;;5090461;28;20027;-75
2021/11/24 07:26:19;;;;;;;134.75;76.65;;;77.20;2227.20;;;;;;5090985;28;20036;-75
2021/11/24 07:28:45;;;;;;;115.07;72.63;;;77.30;2227.20;;;;;;5091685;28;20456;-75
2021/11/24 07:31:11;;;;;;;108.93;70.05;;;77.40;2227.20;;;;;;5091131;28;20073;-74
2021/11/24 07:33:37;;;;;;;141.95;83.13;;;77.40;2227.20;;;;;;5091163;28;20024;-75
2021/11/24 07:36:03;;;;;;;134.25;82.25;;;77.50;2227.20;;;;;;5072713;28;20012;-75
2021/11/24 07:38:29;;;;;;;121.78;72.13;;;77.60;2227.20;;;;;;5090741;28;20490;-75
2021/11/24 07:40:55;;;;;;;91.57;55.97;;;77.60;2227.20;;;;;;5099820;28;20028;-74
2021/11/24 07:43:21;;;;;;;89.20;52.97;;;77.60;2227.20;;;;;;5100350;28;20417;-74
2021/11/24 07:45:47;;;;;;;89.88;49.08;;;77.60;2227.20;;;;;;5079710;28;20123;-74
2021/11/24 07:48:13;;;;;;;90.78;50.67;;;77.60;2227.20;;;;;;5094489;28;20103;-74
2021/11/24 07:50:39;;;;;;;111.65;59.22;;;77.70;2227.20;;;;;;5075649;28;20626;-74
2021/11/24 07:53:05;;;;;;;94.80;52.00;;;102.40;2227.20;;;;;;5099617;28;20088;-75
2021/11/24 07:55:31;;;;;;;94.43;53.70;;;102.50;2227.20;;;;;;5092133;28;20020;-74
2021/11/24 07:57:56;;;;;;;88.63;51.38;;;102.60;2227.20;;;;;;5090631;28;20073;-75
2021/11/24 08:00:22;;;;;;;79.25;45.50;;;102.70;2227.20;;;;;;5072699;28;20107;-74
2021/11/24 08:02:48;;;;;;;69.90;40.53;;;102.80;2227.20;;;;;;5095003;28;20390;-75
2021/11/24 08:05:14;;;;;;;66.07;40.95;;;102.90;2227.20;;;;;;5093917;28;20040;-75
2021/11/24 08:07:40;;;;;;;66.00;41.58;;;102.90;2227.20;;;;;;5076404;28;20031;-75
2021/11/24 08:10:07;;;;;;;60.33;37.85;;;103.00;2227.20;;;;;;5076969;28;20513;-75
2021/11/24 08:12:33;;;;;;;55.10;34.85;;;103.10;2227.20;;;;;;5095653;28;20044;-74
2021/11/24 08:14:59;;;;;;;63.22;35.90;;;103.20;2227.20;;;;;;5094444;28;20043;-75
2021/11/24 08:17:25;;;;;;;61.35;36.65;;;103.20;2227.20;;;;;;5095255;28;20024;-74
2021/11/24 08:19:51;;;;;;;59.17;39.38;;;128.00;2252.80;;;;;;5094717;28;20097;-75
2021/11/24 08:22:17;;;;;;;62.80;35.78;;;128.10;2252.80;;;;;;5095771;28;20024;-74
2021/11/24 08:24:43;;;;;;;65.85;37.00;;;128.20;2252.80;;;;;;5093948;28;20527;-75
2021/11/24 08:27:10;;;;;;;54.88;31.58;;;128.20;2252.80;;;;;;5077323;28;20440;-75
2021/11/24 08:29:36;;;;;;;59.65;33.50;;;128.40;2252.80;;;;;;5076820;28;20367;-75
2021/11/24 08:32:01;;;;;;;59.92;35.45;;;128.50;2252.80;;;;;;5094780;28;20470;-74
2021/11/24 08:34:27;;;;;;;48.30;30.55;;;128.70;2252.80;;;;;;5094954;28;20040;-74
2021/11/24 08:36:53;;;;;;;46.60;29.60;;;128.90;2252.80;;;;;;5073321;28;20032;-74
2021/11/24 08:39:19;;;;;;;42.97;27.98;;;153.60;2252.80;;;;;;5076564;28;20486;-74
2021/11/24 08:41:45;;;;;;;46.20;29.33;;;153.90;2252.80;;;;;;5094413;28;20764;-73
2021/11/24 08:44:12;;;;;;;52.42;30.17;;;154.20;2252.80;;;;;;5098041;28;20680;-74
2021/11/24 08:46:39;;;;;;;70.25;35.60;;;154.40;2252.80;;;;;;5094038;28;20047;-74
2021/11/24 08:49:05;;;;;;;66.07;39.33;;;179.20;2252.80;;;;;;5096292;28;20558;-75
2021/11/24 08:51:36;;;;;;;51.03;32.58;;;179.60;2252.80;;;;;;5100465;28;20032;-75
2021/11/24 08:54:02;;;;;;;37.80;23.25;;;180.00;2252.80;;;;;;5092994;28;20058;-74
2021/11/24 08:56:30;;;;;;;32.55;22.75;;;204.90;2252.80;;;;;;5076537;28;20060;-74
2021/11/24 08:58:56;;;;;;;34.00;23.17;;;205.20;2252.80;;;;;;5094715;28;20016;-75
2021/11/24 09:01:22;;;;;;;39.75;24.92;;;205.40;2252.80;;;;;;5076783;28;20483;-75
2021/11/24 09:03:47;;;;;;;31.92;22.05;;;230.40;2252.80;;;;;;5093841;28;20027;-75
2021/11/24 09:06:13;;;;;;;37.88;22.70;;;230.50;2252.80;;;;;;5093691;28;20039;-75
2021/11/24 09:08:39;;;;;;;37.28;23.67;;;230.50;2252.80;;;;;;5082229;28;20024;-75
2021/11/24 09:11:05;;;;;;;37.10;23.95;;;230.90;2252.80;;;;;;5080941;28;20089;-75
2021/11/24 09:13:31;;;;;;;34.88;21.52;;;230.90;2252.80;;;;;;5100596;28;20453;-75
2021/11/24 09:15:56;;;;;;;34.63;23.30;;;231.20;2252.80;;;;;;5083605;28;20065;-75
2021/11/24 09:18:22;;;;;;;35.30;21.83;;;256.00;2252.80;;;;;;5075860;28;20509;-75
2021/11/24 09:20:48;;;;;;;32.25;23.60;;;256.20;2252.80;;;;;;5107329;28;20016;-75
2021/11/24 09:23:17;;;;;;;34.47;21.08;;;256.40;2252.80;;;;;;5092203;28;20157;-75
2021/11/24 09:26:20;;;;;;;31.35;19.77;;;256.80;2252.80;;;;;;5109892;28;20043;-75
2021/11/24 09:28:36;;;;;;;31.33;20.85;;;256.90;2252.80;;;;;;5106844;28;20039;-74
2021/11/24 09:31:03;;;;;;;33.97;21.67;;;281.70;2278.40;;;;;;5096365;28;20490;-75
2021/11/24 09:33:30;;;;;;;25.27;16.05;;;282.40;2278.40;;;;;;5075425;28;20040;-75
2021/11/24 09:35:56;;;;;;;24.88;17.58;;;282.00;2278.40;;;;;;5095730;28;20036;-75
2021/11/24 09:38:22;;;;;;;25.23;16.60;;;282.50;2278.40;;;;;;5079180;28;20035;-75
2021/11/24 09:40:49;;;;;;;26.50;17.90;;;307.20;2304.00;;;;;;5083861;28;20050;-75
2021/11/24 09:43:17;;;;;;;22.88;15.13;;;307.60;2304.00;;;;;;5100901;28;20027;-75
2021/11/24 09:45:46;;;;;;;21.33;14.88;;;307.50;2304.00;;;;;;5111433;28;20050;-75
2021/11/24 09:48:16;;;;;;;24.70;14.57;;;307.70;2304.00;;;;;;5090072;28;20027;-75
2021/11/24 09:50:45;;;;;;;25.05;15.50;;;308.00;2304.00;;;;;;5113833;28;20020;-75
2021/11/24 09:53:12;;;;;;;19.45;14.77;;;332.80;2329.60;;;;;;5085013;28;20097;-75
2021/11/24 09:55:40;;;;;;;19.92;14.82;;;333.10;2329.60;;;;;;5088588;28;20031;-76
2021/11/24 09:58:07;;;;;;;22.30;15.65;;;333.20;2329.60;;;;;;5091670;28;20034;-78
2021/11/24 10:00:37;;;;;;;31.00;17.75;;;333.50;2329.60;;;;;;5091964;28;20525;-76
2021/11/24 10:03:05;;;;;;;19.25;14.13;;;333.50;2329.60;;;;;;5093721;28;20081;-75
2021/11/24 10:05:33;;;;;;;18.35;13.27;;;333.60;2329.60;;;;;;5092664;28;20028;-75
2021/11/24 10:07:59;;;;;;;18.20;13.27;;;333.70;2329.60;;;;;;5109978;28;20023;-76
2021/11/24 10:10:26;;;;;;;23.35;14.55;;;358.40;2329.60;;;;;;5107886;28;20031;-76
2021/11/24 10:12:53;;;;;;;23.52;15.18;;;358.40;2329.60;;;;;;5109432;28;20093;-75
2021/11/24 10:15:43;;;;;;;22.85;14.85;;;358.70;2329.60;;;;;;5107406;28;20028;-75
2021/11/24 10:18:18;;;;;;;18.35;13.32;;;358.70;2329.60;;;;;;5092124;28;20047;-75
2021/11/24 10:20:45;;;;;;;20.85;15.25;;;359.00;2252.80;;;;;;5096365;28;20016;-76
2021/11/24 10:23:32;;;;;;;27.40;17.40;;;359.20;2278.40;;;;;;5072070;28;20398;-75
2021/11/24 10:26:16;;;;;;;22.00;16.65;;;359.30;2252.80;;;;;;5072781;28;20077;-75
2021/11/24 10:28:50;;;;;;;23.65;17.08;;;384.20;2252.80;;;;;;5093781;28;20028;-75
2021/11/24 10:31:34;;;;;;;24.77;17.23;;;384.00;2201.60;;;;;;5077369;28;20036;-75
2021/11/24 10:34:09;;;;;;;23.25;16.33;;;384.00;2201.60;;;;;;5091905;28;20028;-75
2021/11/24 10:36:52;;;;;;;21.80;15.93;;;384.10;2201.60;;;;;;5075700;28;20019;-75
2021/11/24 10:39:19;;;;;;;22.10;16.20;;;384.20;2124.80;;;;;;5074269;28;20326;-75
2021/11/24 10:41:45;;;;;;;21.77;16.70;;;384.60;2048.00;;;;;;5092110;28;20031;-76
2021/11/24 10:44:23;;;;;;;27.88;20.40;;;384.40;2048.00;;;;;;5107433;28;20487;-75
2021/11/24 10:46:52;;;;;;;24.90;18.00;;;384.50;2022.40;;;;;;5112413;28;20059;-76
2021/11/24 10:49:18;;;;;;;23.58;16.55;;;384.30;2048.00;;;;;;5094139;28;20055;-76
2021/11/24 10:51:44;;;;;;;22.10;14.75;;;384.70;2022.40;;;;;;5092018;28;20450;-76
2021/11/24 10:54:11;;;;;;;18.88;13.95;;;384.80;1920.00;;;;;;5094661;28;20032;-75
2021/11/24 10:57:07;;;;;;;17.35;13.55;;;384.60;1945.60;;;;;;5077054;28;20016;-75
2021/11/24 10:59:37;;;;;;;21.58;14.50;;;384.90;1920.00;;;;;;5093857;28;20024;-75
2021/11/24 11:02:21;;;;;;;24.85;19.25;;;409.60;1945.60;;;;;;5091327;28;20463;-74
2021/11/24 11:04:53;;;;;;;25.95;17.25;;;384.90;1945.60;;;;;;5090942;28;20383;-76
2021/11/24 11:07:19;;;;;;;24.83;18.17;;;384.60;1945.60;;;;;;5074383;28;20035;-73
2021/11/24 11:09:45;;;;;;;22.25;16.85;;;409.60;1971.20;;;;;;5091363;28;20031;-74
2021/11/24 11:12:11;;;;;;;19.40;14.68;;;409.60;1971.20;;;;;;5091736;28;20544;-74
2021/11/24 11:14:36;;;;;;;21.90;16.23;;;409.90;1945.60;;;;;;5091964;28;20081;-75
2021/11/24 11:17:03;;;;;;;29.80;18.15;;;409.90;1945.60;;;;;;5108701;28;20028;-75
2021/11/24 11:19:45;;;;;;;20.88;15.48;;;410.00;1971.20;;;;;;5091487;28;20020;-75
2021/11/24 11:22:20;;;;;;;18.00;13.00;;;410.00;1894.40;;;;;;5091704;28;20027;-75
2021/11/24 11:24:46;;;;;;;21.90;15.20;;;409.90;1894.40;;;;;;5107895;28;20031;-75
2021/11/24 11:27:12;;;;;;;19.17;13.73;;;409.90;1945.60;;;;;;5103504;28;20027;-75
2021/11/24 11:29:40;;;;;;;27.77;17.38;;;409.70;1996.80;;;;;;5112391;28;20467;-75
2021/11/24 11:32:07;;;;;;;24.55;16.58;;;410.10;1920.00;;;;;;5089216;28;20107;-75
2021/11/24 11:34:36;;;;;;;24.27;16.52;;;409.70;1971.20;;;;;;5084023;28;20031;-75
2021/11/24 11:37:04;;;;;;;30.17;19.63;;;409.90;1945.60;;;;;;5093246;28;20451;-75
2021/11/24 11:39:30;;;;;;;21.95;17.10;;;410.00;1894.40;;;;;;5091621;28;20085;-75
2021/11/24 11:41:56;;;;;;;25.20;17.58;;;409.80;1945.60;;;;;;5073591;28;20031;-75
2021/11/24 11:44:23;;;;;;;20.80;15.23;;;409.60;1971.20;;;;;;5091433;28;20028;-75
2021/11/24 11:46:52;;;;;;;25.23;16.65;;;409.70;1971.20;;;;;;5091439;28;20417;-75
2021/11/24 11:49:23;;;;;;;25.10;16.92;;;409.90;1945.60;;;;;;5071073;28;20028;-75
2021/11/24 11:51:53;;;;;;;24.77;17.05;;;409.70;1945.60;;;;;;5091711;28;20043;-75
2021/11/24 11:54:30;;;;;;;24.10;16.58;;;410.20;1920.00;;;;;;5070975;28;20360;-75
2021/11/24 11:56:56;;;;;;;24.33;17.45;;;410.10;1945.60;;;;;;5090855;28;20024;-75
2021/11/24 11:59:31;;;;;;;35.20;24.45;;;410.10;1945.60;;;;;;5091954;28;20095;-76
2021/11/24 12:02:04;;;;;;;33.05;22.60;;;409.90;1996.80;;;;;;5070784;28;20024;-75
2021/11/24 12:04:47;;;;;;;27.85;20.15;;;409.80;2048.00;;;;;;5073493;28;20024;-75